sensor_id;sensor_type;location;lat;lon;timestamp;P1;durP1;ratioP1;P2;durP2;ratioP2
38162;SDS011;23977;53.078;18.248;2023-06-22T00:00:52;17.13;;;15.43;;
38162;SDS011;23977;53.078;18.248;2023-06-22T00:03:32;17.70;;;15.38;;
38162;SDS011;23977;53.078;18.248;2023-06-22T00:05:58;17.83;;;15.98;;
38162;SDS011;23977;53.078;18.248;2023-06-22T00:08:24;16.73;;;15.02;;
38162;SDS011;23977;53.078;18.248;2023-06-22T00:10:49;17.40;;;15.60;;
38162;SDS011;23977;53.078;18.248;2023-06-22T00:13:16;16.15;;;14.50;;
38162;SDS011;23977;53.078;18.248;2023-06-22T00:15:43;17.13;;;15.43;;
38162;SDS011;23977;53.078;18.248;2023-06-22T00:18:10;16.42;;;14.80;;
38162;SDS011;23977;53.078;18.248;2023-06-22T00:20:36;17.15;;;15.30;;
38162;SDS011;23977;53.078;18.248;2023-06-22T00:23:02;16.85;;;14.98;;
38162;SDS011;23977;53.078;18.248;2023-06-22T00:25:36;17.30;;;15.07;;
38162;SDS011;23977;53.078;18.248;2023-06-22T00:28:05;17.13;;;15.20;;
38162;SDS011;23977;53.078;18.248;2023-06-22T00:30:32;17.15;;;15.38;;
38162;SDS011;23977;53.078;18.248;2023-06-22T00:32:59;16.67;;;14.88;;
38162;SDS011;23977;53.078;18.248;2023-06-22T00:35:25;18.85;;;15.73;;
38162;SDS011;23977;53.078;18.248;2023-06-22T00:37:55;16.40;;;14.80;;
38162;SDS011;23977;53.078;18.248;2023-06-22T00:40:26;18.13;;;16.23;;
38162;SDS011;23977;53.078;18.248;2023-06-22T00:42:58;19.67;;;16.63;;
38162;SDS011;23977;53.078;18.248;2023-06-22T00:45:25;17.00;;;15.25;;
38162;SDS011;23977;53.078;18.248;2023-06-22T00:47:52;17.15;;;15.40;;
38162;SDS011;23977;53.078;18.248;2023-06-22T00:50:20;17.67;;;15.88;;
38162;SDS011;23977;53.078;18.248;2023-06-22T00:52:48;18.00;;;15.25;;
38162;SDS011;23977;53.078;18.248;2023-06-22T00:55:16;17.17;;;15.35;;
38162;SDS011;23977;53.078;18.248;2023-06-22T00:57:45;17.77;;;14.77;;
38162;SDS011;23977;53.078;18.248;2023-06-22T01:00:11;16.67;;;14.70;;
38162;SDS011;23977;53.078;18.248;2023-06-22T01:02:44;15.63;;;13.93;;
38162;SDS011;23977;53.078;18.248;2023-06-22T01:05:17;17.75;;;14.93;;
38162;SDS011;23977;53.078;18.248;2023-06-22T01:07:54;16.15;;;14.15;;
38162;SDS011;23977;53.078;18.248;2023-06-22T01:12:48;15.50;;;13.75;;
38162;SDS011;23977;53.078;18.248;2023-06-22T01:15:25;14.68;;;13.15;;
38162;SDS011;23977;53.078;18.248;2023-06-22T01:18:02;16.52;;;14.15;;
38162;SDS011;23977;53.078;18.248;2023-06-22T01:20:31;16.45;;;14.35;;
38162;SDS011;23977;53.078;18.248;2023-06-22T01:31:08;14.90;;;13.35;;
38162;SDS011;23977;53.078;18.248;2023-06-22T01:33:37;13.60;;;12.20;;
38162;SDS011;23977;53.078;18.248;2023-06-22T01:36:04;14.75;;;12.80;;
38162;SDS011;23977;53.078;18.248;2023-06-22T01:38:31;13.77;;;12.25;;
38162;SDS011;23977;53.078;18.248;2023-06-22T01:40:58;15.25;;;11.60;;
38162;SDS011;23977;53.078;18.248;2023-06-22T01:43:26;14.18;;;11.45;;
38162;SDS011;23977;53.078;18.248;2023-06-22T01:45:56;13.23;;;10.75;;
38162;SDS011;23977;53.078;18.248;2023-06-22T01:48:23;12.27;;;10.98;;
38162;SDS011;23977;53.078;18.248;2023-06-22T01:50:51;13.00;;;10.52;;
38162;SDS011;23977;53.078;18.248;2023-06-22T01:53:22;13.23;;;10.70;;
38162;SDS011;23977;53.078;18.248;2023-06-22T01:55:48;11.85;;;10.35;;
38162;SDS011;23977;53.078;18.248;2023-06-22T01:58:14;14.27;;;11.43;;
38162;SDS011;23977;53.078;18.248;2023-06-22T02:00:41;13.23;;;10.38;;
38162;SDS011;23977;53.078;18.248;2023-06-22T02:03:21;11.77;;;10.10;;
38162;SDS011;23977;53.078;18.248;2023-06-22T02:08:49;12.68;;;10.52;;
38162;SDS011;23977;53.078;18.248;2023-06-22T02:11:21;10.85;;;9.75;;
38162;SDS011;23977;53.078;18.248;2023-06-22T02:13:50;15.38;;;9.82;;
38162;SDS011;23977;53.078;18.248;2023-06-22T02:16:16;13.90;;;9.95;;
38162;SDS011;23977;53.078;18.248;2023-06-22T02:18:47;11.13;;;9.93;;
38162;SDS011;23977;53.078;18.248;2023-06-22T02:21:16;11.23;;;9.70;;
38162;SDS011;23977;53.078;18.248;2023-06-22T02:23:45;11.70;;;9.80;;
38162;SDS011;23977;53.078;18.248;2023-06-22T02:26:11;12.45;;;10.27;;
38162;SDS011;23977;53.078;18.248;2023-06-22T02:28:38;11.10;;;9.77;;
38162;SDS011;23977;53.078;18.248;2023-06-22T02:31:04;13.50;;;10.82;;
38162;SDS011;23977;53.078;18.248;2023-06-22T02:33:30;14.45;;;11.05;;
38162;SDS011;23977;53.078;18.248;2023-06-22T02:35:55;11.40;;;9.43;;
38162;SDS011;23977;53.078;18.248;2023-06-22T02:38:21;11.52;;;9.63;;
38162;SDS011;23977;53.078;18.248;2023-06-22T02:40:49;11.93;;;9.70;;
38162;SDS011;23977;53.078;18.248;2023-06-22T02:43:15;10.70;;;8.55;;
38162;SDS011;23977;53.078;18.248;2023-06-22T02:45:42;12.52;;;8.50;;
38162;SDS011;23977;53.078;18.248;2023-06-22T02:48:07;10.05;;;7.70;;
38162;SDS011;23977;53.078;18.248;2023-06-22T02:50:33;11.60;;;7.82;;
38162;SDS011;23977;53.078;18.248;2023-06-22T02:52:59;9.35;;;7.35;;
38162;SDS011;23977;53.078;18.248;2023-06-22T02:55:24;10.52;;;8.15;;
38162;SDS011;23977;53.078;18.248;2023-06-22T02:57:50;8.93;;;6.82;;
38162;SDS011;23977;53.078;18.248;2023-06-22T03:00:18;9.93;;;8.05;;
38162;SDS011;23977;53.078;18.248;2023-06-22T03:02:45;8.15;;;6.65;;
38162;SDS011;23977;53.078;18.248;2023-06-22T03:05:12;10.60;;;7.10;;
38162;SDS011;23977;53.078;18.248;2023-06-22T03:07:39;9.48;;;6.50;;
38162;SDS011;23977;53.078;18.248;2023-06-22T03:10:06;9.52;;;7.20;;
38162;SDS011;23977;53.078;18.248;2023-06-22T03:12:34;10.00;;;7.28;;
38162;SDS011;23977;53.078;18.248;2023-06-22T03:15:00;11.00;;;7.18;;
38162;SDS011;23977;53.078;18.248;2023-06-22T03:17:26;9.98;;;7.40;;
38162;SDS011;23977;53.078;18.248;2023-06-22T03:19:51;10.43;;;6.95;;
38162;SDS011;23977;53.078;18.248;2023-06-22T03:22:17;8.75;;;6.18;;
38162;SDS011;23977;53.078;18.248;2023-06-22T03:24:42;7.75;;;6.53;;
38162;SDS011;23977;53.078;18.248;2023-06-22T03:27:08;8.07;;;6.10;;
38162;SDS011;23977;53.078;18.248;2023-06-22T03:29:34;9.52;;;5.85;;
38162;SDS011;23977;53.078;18.248;2023-06-22T03:32:00;7.85;;;5.78;;
38162;SDS011;23977;53.078;18.248;2023-06-22T03:34:25;7.07;;;5.53;;
38162;SDS011;23977;53.078;18.248;2023-06-22T03:36:51;8.48;;;5.35;;
38162;SDS011;23977;53.078;18.248;2023-06-22T03:39:17;8.65;;;5.60;;
38162;SDS011;23977;53.078;18.248;2023-06-22T03:41:43;9.05;;;4.95;;
38162;SDS011;23977;53.078;18.248;2023-06-22T03:44:08;7.05;;;5.18;;
38162;SDS011;23977;53.078;18.248;2023-06-22T03:46:37;8.02;;;4.97;;
38162;SDS011;23977;53.078;18.248;2023-06-22T03:49:03;6.47;;;4.38;;
38162;SDS011;23977;53.078;18.248;2023-06-22T03:51:30;5.72;;;4.25;;
38162;SDS011;23977;53.078;18.248;2023-06-22T03:53:57;8.40;;;4.75;;
38162;SDS011;23977;53.078;18.248;2023-06-22T03:56:22;9.13;;;4.50;;
38162;SDS011;23977;53.078;18.248;2023-06-22T03:58:48;5.97;;;4.18;;
38162;SDS011;23977;53.078;18.248;2023-06-22T04:01:13;8.82;;;4.40;;
38162;SDS011;23977;53.078;18.248;2023-06-22T04:03:40;6.18;;;4.15;;
38162;SDS011;23977;53.078;18.248;2023-06-22T04:06:06;5.95;;;3.80;;
38162;SDS011;23977;53.078;18.248;2023-06-22T04:08:32;7.50;;;4.93;;
38162;SDS011;23977;53.078;18.248;2023-06-22T04:10:57;6.28;;;4.05;;
38162;SDS011;23977;53.078;18.248;2023-06-22T04:13:23;7.00;;;4.38;;
38162;SDS011;23977;53.078;18.248;2023-06-22T04:15:49;6.85;;;3.90;;
38162;SDS011;23977;53.078;18.248;2023-06-22T04:18:14;6.45;;;4.10;;
38162;SDS011;23977;53.078;18.248;2023-06-22T04:20:40;6.07;;;3.80;;
38162;SDS011;23977;53.078;18.248;2023-06-22T04:23:06;8.73;;;4.18;;
38162;SDS011;23977;53.078;18.248;2023-06-22T04:25:31;9.85;;;4.00;;
38162;SDS011;23977;53.078;18.248;2023-06-22T04:27:57;7.60;;;3.67;;
38162;SDS011;23977;53.078;18.248;2023-06-22T04:30:23;7.50;;;3.97;;
38162;SDS011;23977;53.078;18.248;2023-06-22T04:32:48;6.88;;;3.92;;
38162;SDS011;23977;53.078;18.248;2023-06-22T04:35:25;7.05;;;4.00;;
38162;SDS011;23977;53.078;18.248;2023-06-22T04:37:52;10.52;;;3.88;;
38162;SDS011;23977;53.078;18.248;2023-06-22T04:40:23;5.65;;;3.70;;
38162;SDS011;23977;53.078;18.248;2023-06-22T04:42:49;9.68;;;3.85;;
38162;SDS011;23977;53.078;18.248;2023-06-22T04:45:19;6.38;;;3.83;;
38162;SDS011;23977;53.078;18.248;2023-06-22T04:47:46;5.43;;;3.28;;
38162;SDS011;23977;53.078;18.248;2023-06-22T04:50:12;5.60;;;3.70;;
38162;SDS011;23977;53.078;18.248;2023-06-22T04:52:38;6.57;;;3.60;;
38162;SDS011;23977;53.078;18.248;2023-06-22T04:55:04;7.20;;;3.70;;
38162;SDS011;23977;53.078;18.248;2023-06-22T04:57:30;6.32;;;3.58;;
38162;SDS011;23977;53.078;18.248;2023-06-22T04:59:59;9.07;;;3.30;;
38162;SDS011;23977;53.078;18.248;2023-06-22T05:02:37;5.88;;;3.47;;
38162;SDS011;23977;53.078;18.248;2023-06-22T05:05:04;7.95;;;3.90;;
38162;SDS011;23977;53.078;18.248;2023-06-22T05:07:35;6.15;;;3.15;;
38162;SDS011;23977;53.078;18.248;2023-06-22T05:10:04;6.85;;;3.67;;
38162;SDS011;23977;53.078;18.248;2023-06-22T05:12:30;6.20;;;3.20;;
38162;SDS011;23977;53.078;18.248;2023-06-22T05:14:56;8.18;;;3.10;;
38162;SDS011;23977;53.078;18.248;2023-06-22T05:17:22;7.18;;;3.15;;
38162;SDS011;23977;53.078;18.248;2023-06-22T05:19:48;8.70;;;3.50;;
38162;SDS011;23977;53.078;18.248;2023-06-22T05:22:16;6.82;;;3.25;;
38162;SDS011;23977;53.078;18.248;2023-06-22T05:24:43;6.82;;;3.22;;
38162;SDS011;23977;53.078;18.248;2023-06-22T05:27:09;5.65;;;3.25;;
38162;SDS011;23977;53.078;18.248;2023-06-22T05:29:38;8.15;;;3.60;;
38162;SDS011;23977;53.078;18.248;2023-06-22T05:32:04;5.50;;;3.20;;
38162;SDS011;23977;53.078;18.248;2023-06-22T05:34:31;6.80;;;3.67;;
38162;SDS011;23977;53.078;18.248;2023-06-22T05:36:56;7.28;;;3.60;;
38162;SDS011;23977;53.078;18.248;2023-06-22T05:39:24;5.80;;;3.20;;
38162;SDS011;23977;53.078;18.248;2023-06-22T05:41:51;8.15;;;3.47;;
38162;SDS011;23977;53.078;18.248;2023-06-22T05:44:17;5.18;;;3.17;;
38162;SDS011;23977;53.078;18.248;2023-06-22T05:46:43;6.90;;;3.10;;
38162;SDS011;23977;53.078;18.248;2023-06-22T05:49:12;7.05;;;3.10;;
38162;SDS011;23977;53.078;18.248;2023-06-22T05:51:38;6.20;;;3.20;;
38162;SDS011;23977;53.078;18.248;2023-06-22T05:54:04;9.50;;;3.63;;
38162;SDS011;23977;53.078;18.248;2023-06-22T05:56:30;5.97;;;3.00;;
38162;SDS011;23977;53.078;18.248;2023-06-22T05:58:56;5.43;;;3.15;;
38162;SDS011;23977;53.078;18.248;2023-06-22T06:01:21;7.32;;;3.35;;
38162;SDS011;23977;53.078;18.248;2023-06-22T06:03:47;4.72;;;3.03;;
38162;SDS011;23977;53.078;18.248;2023-06-22T06:06:14;5.97;;;2.92;;
38162;SDS011;23977;53.078;18.248;2023-06-22T06:08:40;6.65;;;2.92;;
38162;SDS011;23977;53.078;18.248;2023-06-22T06:11:06;14.90;;;3.20;;
38162;SDS011;23977;53.078;18.248;2023-06-22T06:13:32;6.40;;;3.08;;
38162;SDS011;23977;53.078;18.248;2023-06-22T06:15:57;5.32;;;2.90;;
38162;SDS011;23977;53.078;18.248;2023-06-22T06:18:24;5.22;;;2.97;;
38162;SDS011;23977;53.078;18.248;2023-06-22T06:20:50;4.57;;;2.78;;
38162;SDS011;23977;53.078;18.248;2023-06-22T06:23:16;7.15;;;2.95;;
38162;SDS011;23977;53.078;18.248;2023-06-22T06:25:42;5.90;;;2.65;;
38162;SDS011;23977;53.078;18.248;2023-06-22T06:28:08;5.07;;;2.50;;
38162;SDS011;23977;53.078;18.248;2023-06-22T06:30:33;4.82;;;2.67;;
38162;SDS011;23977;53.078;18.248;2023-06-22T06:33:00;5.95;;;2.70;;
38162;SDS011;23977;53.078;18.248;2023-06-22T06:35:25;4.90;;;2.60;;
38162;SDS011;23977;53.078;18.248;2023-06-22T06:37:51;3.90;;;2.30;;
38162;SDS011;23977;53.078;18.248;2023-06-22T06:40:17;4.45;;;2.30;;
38162;SDS011;23977;53.078;18.248;2023-06-22T06:42:44;4.95;;;2.53;;
38162;SDS011;23977;53.078;18.248;2023-06-22T06:47:42;4.55;;;2.20;;
38162;SDS011;23977;53.078;18.248;2023-06-22T06:50:07;6.07;;;2.72;;
38162;SDS011;23977;53.078;18.248;2023-06-22T06:52:35;4.45;;;2.40;;
38162;SDS011;23977;53.078;18.248;2023-06-22T06:55:00;4.55;;;2.72;;
38162;SDS011;23977;53.078;18.248;2023-06-22T06:57:27;4.97;;;2.30;;
38162;SDS011;23977;53.078;18.248;2023-06-22T06:59:57;4.45;;;2.13;;
38162;SDS011;23977;53.078;18.248;2023-06-22T07:02:23;7.10;;;2.45;;
38162;SDS011;23977;53.078;18.248;2023-06-22T07:04:49;5.45;;;2.40;;
38162;SDS011;23977;53.078;18.248;2023-06-22T07:07:15;3.85;;;1.80;;
38162;SDS011;23977;53.078;18.248;2023-06-22T07:09:41;4.00;;;2.20;;
38162;SDS011;23977;53.078;18.248;2023-06-22T07:12:07;4.20;;;2.08;;
38162;SDS011;23977;53.078;18.248;2023-06-22T07:14:33;6.53;;;2.00;;
38162;SDS011;23977;53.078;18.248;2023-06-22T07:16:58;4.65;;;2.05;;
38162;SDS011;23977;53.078;18.248;2023-06-22T07:19:27;7.05;;;2.17;;
38162;SDS011;23977;53.078;18.248;2023-06-22T07:21:54;4.10;;;1.90;;
38162;SDS011;23977;53.078;18.248;2023-06-22T07:24:23;4.60;;;2.00;;
38162;SDS011;23977;53.078;18.248;2023-06-22T07:26:49;4.93;;;1.80;;
38162;SDS011;23977;53.078;18.248;2023-06-22T07:29:19;3.67;;;1.60;;
38162;SDS011;23977;53.078;18.248;2023-06-22T07:31:46;4.55;;;1.75;;
38162;SDS011;23977;53.078;18.248;2023-06-22T07:34:13;4.97;;;1.88;;
38162;SDS011;23977;53.078;18.248;2023-06-22T07:36:39;3.20;;;1.40;;
38162;SDS011;23977;53.078;18.248;2023-06-22T07:39:04;2.80;;;1.50;;
38162;SDS011;23977;53.078;18.248;2023-06-22T07:41:31;2.63;;;1.50;;
38162;SDS011;23977;53.078;18.248;2023-06-22T07:43:56;3.08;;;1.50;;
38162;SDS011;23977;53.078;18.248;2023-06-22T07:46:23;3.42;;;1.50;;
38162;SDS011;23977;53.078;18.248;2023-06-22T07:48:48;4.03;;;1.52;;
38162;SDS011;23977;53.078;18.248;2023-06-22T07:51:14;2.17;;;1.42;;
38162;SDS011;23977;53.078;18.248;2023-06-22T07:53:43;4.22;;;1.63;;
38162;SDS011;23977;53.078;18.248;2023-06-22T07:56:10;3.20;;;1.42;;
38162;SDS011;23977;53.078;18.248;2023-06-22T07:58:36;3.65;;;1.50;;
38162;SDS011;23977;53.078;18.248;2023-06-22T08:01:02;2.60;;;1.35;;
38162;SDS011;23977;53.078;18.248;2023-06-22T08:03:28;2.95;;;1.20;;
38162;SDS011;23977;53.078;18.248;2023-06-22T08:05:54;2.78;;;1.30;;
38162;SDS011;23977;53.078;18.248;2023-06-22T08:08:20;2.92;;;1.52;;
38162;SDS011;23977;53.078;18.248;2023-06-22T08:10:46;2.92;;;1.40;;
38162;SDS011;23977;53.078;18.248;2023-06-22T08:13:11;2.85;;;1.30;;
38162;SDS011;23977;53.078;18.248;2023-06-22T08:15:37;2.58;;;1.30;;
38162;SDS011;23977;53.078;18.248;2023-06-22T08:18:03;3.95;;;1.42;;
38162;SDS011;23977;53.078;18.248;2023-06-22T08:20:29;2.92;;;1.52;;
38162;SDS011;23977;53.078;18.248;2023-06-22T08:22:55;2.55;;;1.45;;
38162;SDS011;23977;53.078;18.248;2023-06-22T08:25:21;2.60;;;1.30;;
38162;SDS011;23977;53.078;18.248;2023-06-22T08:27:47;4.40;;;1.35;;
38162;SDS011;23977;53.078;18.248;2023-06-22T08:30:14;2.83;;;1.35;;
38162;SDS011;23977;53.078;18.248;2023-06-22T08:32:40;2.90;;;1.35;;
38162;SDS011;23977;53.078;18.248;2023-06-22T08:35:06;3.60;;;1.40;;
38162;SDS011;23977;53.078;18.248;2023-06-22T08:37:33;4.65;;;1.60;;
38162;SDS011;23977;53.078;18.248;2023-06-22T08:40:02;3.80;;;1.38;;
38162;SDS011;23977;53.078;18.248;2023-06-22T08:42:35;4.13;;;1.42;;
38162;SDS011;23977;53.078;18.248;2023-06-22T08:45:02;3.38;;;1.30;;
38162;SDS011;23977;53.078;18.248;2023-06-22T08:47:29;2.83;;;1.20;;
38162;SDS011;23977;53.078;18.248;2023-06-22T08:49:55;3.50;;;1.50;;
38162;SDS011;23977;53.078;18.248;2023-06-22T08:52:21;3.67;;;1.50;;
38162;SDS011;23977;53.078;18.248;2023-06-22T08:54:48;2.95;;;1.60;;
38162;SDS011;23977;53.078;18.248;2023-06-22T08:57:14;4.03;;;1.60;;
38162;SDS011;23977;53.078;18.248;2023-06-22T08:59:41;3.30;;;1.50;;
38162;SDS011;23977;53.078;18.248;2023-06-22T09:02:07;3.00;;;1.58;;
38162;SDS011;23977;53.078;18.248;2023-06-22T09:04:33;2.20;;;1.40;;
38162;SDS011;23977;53.078;18.248;2023-06-22T09:07:00;3.15;;;1.48;;
38162;SDS011;23977;53.078;18.248;2023-06-22T09:09:26;2.65;;;1.45;;
38162;SDS011;23977;53.078;18.248;2023-06-22T09:11:52;2.95;;;1.58;;
38162;SDS011;23977;53.078;18.248;2023-06-22T09:14:18;3.63;;;1.60;;
38162;SDS011;23977;53.078;18.248;2023-06-22T09:16:43;2.50;;;1.50;;
38162;SDS011;23977;53.078;18.248;2023-06-22T09:19:09;4.88;;;1.55;;
38162;SDS011;23977;53.078;18.248;2023-06-22T09:21:35;2.22;;;1.20;;
38162;SDS011;23977;53.078;18.248;2023-06-22T09:24:01;4.55;;;1.58;;
38162;SDS011;23977;53.078;18.248;2023-06-22T09:26:27;2.47;;;1.35;;
38162;SDS011;23977;53.078;18.248;2023-06-22T09:28:53;1.80;;;1.30;;
38162;SDS011;23977;53.078;18.248;2023-06-22T09:31:19;2.58;;;1.40;;
38162;SDS011;23977;53.078;18.248;2023-06-22T09:33:53;2.60;;;1.50;;
38162;SDS011;23977;53.078;18.248;2023-06-22T09:36:22;2.65;;;1.45;;
38162;SDS011;23977;53.078;18.248;2023-06-22T09:38:49;3.13;;;1.48;;
38162;SDS011;23977;53.078;18.248;2023-06-22T09:41:20;3.55;;;1.55;;
38162;SDS011;23977;53.078;18.248;2023-06-22T09:43:46;3.00;;;1.58;;
38162;SDS011;23977;53.078;18.248;2023-06-22T09:46:14;2.85;;;1.45;;
38162;SDS011;23977;53.078;18.248;2023-06-22T09:48:40;2.53;;;1.40;;
38162;SDS011;23977;53.078;18.248;2023-06-22T09:51:06;4.80;;;1.52;;
38162;SDS011;23977;53.078;18.248;2023-06-22T09:53:33;2.55;;;1.42;;
38162;SDS011;23977;53.078;18.248;2023-06-22T09:56:03;2.92;;;1.67;;
38162;SDS011;23977;53.078;18.248;2023-06-22T09:58:29;2.25;;;1.52;;
38162;SDS011;23977;53.078;18.248;2023-06-22T10:00:55;2.03;;;1.33;;
38162;SDS011;23977;53.078;18.248;2023-06-22T10:03:21;3.20;;;1.63;;
38162;SDS011;23977;53.078;18.248;2023-06-22T10:05:46;2.85;;;1.70;;
38162;SDS011;23977;53.078;18.248;2023-06-22T10:08:12;3.40;;;1.60;;
38162;SDS011;23977;53.078;18.248;2023-06-22T10:10:38;5.70;;;1.63;;
38162;SDS011;23977;53.078;18.248;2023-06-22T10:13:10;3.00;;;1.50;;
38162;SDS011;23977;53.078;18.248;2023-06-22T10:15:36;3.40;;;1.80;;
38162;SDS011;23977;53.078;18.248;2023-06-22T10:18:02;3.33;;;1.88;;
38162;SDS011;23977;53.078;18.248;2023-06-22T10:20:28;4.25;;;1.90;;
38162;SDS011;23977;53.078;18.248;2023-06-22T10:22:55;5.07;;;2.10;;
38162;SDS011;23977;53.078;18.248;2023-06-22T10:25:21;3.60;;;1.75;;
38162;SDS011;23977;53.078;18.248;2023-06-22T10:27:47;3.92;;;2.10;;
38162;SDS011;23977;53.078;18.248;2023-06-22T10:30:15;4.80;;;2.40;;
38162;SDS011;23977;53.078;18.248;2023-06-22T10:32:41;4.65;;;2.42;;
38162;SDS011;23977;53.078;18.248;2023-06-22T10:35:08;3.50;;;2.00;;
38162;SDS011;23977;53.078;18.248;2023-06-22T10:37:36;3.92;;;2.17;;
38162;SDS011;23977;53.078;18.248;2023-06-22T10:40:02;4.57;;;2.35;;
38162;SDS011;23977;53.078;18.248;2023-06-22T10:42:29;6.68;;;2.20;;
38162;SDS011;23977;53.078;18.248;2023-06-22T10:44:55;3.50;;;2.00;;
38162;SDS011;23977;53.078;18.248;2023-06-22T10:47:21;3.55;;;2.10;;
38162;SDS011;23977;53.078;18.248;2023-06-22T10:49:46;3.67;;;2.17;;
38162;SDS011;23977;53.078;18.248;2023-06-22T10:52:12;7.70;;;2.10;;
38162;SDS011;23977;53.078;18.248;2023-06-22T10:54:37;6.85;;;2.42;;
38162;SDS011;23977;53.078;18.248;2023-06-22T10:57:04;4.25;;;2.40;;
38162;SDS011;23977;53.078;18.248;2023-06-22T10:59:29;4.78;;;2.40;;
38162;SDS011;23977;53.078;18.248;2023-06-22T11:01:56;4.22;;;2.20;;
38162;SDS011;23977;53.078;18.248;2023-06-22T11:04:22;4.18;;;2.08;;
38162;SDS011;23977;53.078;18.248;2023-06-22T11:06:48;3.63;;;2.05;;
38162;SDS011;23977;53.078;18.248;2023-06-22T11:09:14;4.15;;;2.05;;
38162;SDS011;23977;53.078;18.248;2023-06-22T11:11:49;3.80;;;2.17;;
38162;SDS011;23977;53.078;18.248;2023-06-22T11:14:15;3.92;;;2.28;;
38162;SDS011;23977;53.078;18.248;2023-06-22T11:16:42;3.83;;;2.20;;
38162;SDS011;23977;53.078;18.248;2023-06-22T11:19:07;5.68;;;2.53;;
38162;SDS011;23977;53.078;18.248;2023-06-22T11:21:33;4.85;;;2.63;;
38162;SDS011;23977;53.078;18.248;2023-06-22T11:23:59;3.88;;;2.20;;
38162;SDS011;23977;53.078;18.248;2023-06-22T11:26:25;5.03;;;2.55;;
38162;SDS011;23977;53.078;18.248;2023-06-22T11:28:57;4.10;;;2.40;;
38162;SDS011;23977;53.078;18.248;2023-06-22T11:31:23;4.18;;;2.33;;
38162;SDS011;23977;53.078;18.248;2023-06-22T11:33:49;4.05;;;2.40;;
38162;SDS011;23977;53.078;18.248;2023-06-22T11:36:15;4.30;;;1.90;;
38162;SDS011;23977;53.078;18.248;2023-06-22T11:38:41;3.88;;;2.28;;
38162;SDS011;23977;53.078;18.248;2023-06-22T11:41:08;3.60;;;2.33;;
38162;SDS011;23977;53.078;18.248;2023-06-22T11:43:34;4.03;;;2.30;;
38162;SDS011;23977;53.078;18.248;2023-06-22T11:46:01;4.10;;;2.30;;
38162;SDS011;23977;53.078;18.248;2023-06-22T11:48:28;4.63;;;2.05;;
38162;SDS011;23977;53.078;18.248;2023-06-22T11:50:54;3.42;;;2.20;;
38162;SDS011;23977;53.078;18.248;2023-06-22T11:53:24;4.10;;;2.30;;
38162;SDS011;23977;53.078;18.248;2023-06-22T11:55:51;5.22;;;2.42;;
38162;SDS011;23977;53.078;18.248;2023-06-22T11:58:17;5.22;;;2.40;;
38162;SDS011;23977;53.078;18.248;2023-06-22T12:00:43;4.20;;;2.03;;
38162;SDS011;23977;53.078;18.248;2023-06-22T12:03:10;3.83;;;2.40;;
38162;SDS011;23977;53.078;18.248;2023-06-22T12:05:37;3.67;;;2.35;;
38162;SDS011;23977;53.078;18.248;2023-06-22T12:08:03;4.22;;;2.40;;
38162;SDS011;23977;53.078;18.248;2023-06-22T12:10:29;3.70;;;2.22;;
38162;SDS011;23977;53.078;18.248;2023-06-22T12:12:55;5.18;;;2.25;;
38162;SDS011;23977;53.078;18.248;2023-06-22T12:15:20;4.25;;;2.38;;
38162;SDS011;23977;53.078;18.248;2023-06-22T12:17:46;3.35;;;2.03;;
38162;SDS011;23977;53.078;18.248;2023-06-22T12:20:13;4.70;;;2.25;;
38162;SDS011;23977;53.078;18.248;2023-06-22T12:22:40;4.53;;;2.25;;
38162;SDS011;23977;53.078;18.248;2023-06-22T12:25:06;4.25;;;1.92;;
38162;SDS011;23977;53.078;18.248;2023-06-22T12:27:33;4.00;;;1.85;;
38162;SDS011;23977;53.078;18.248;2023-06-22T12:29:59;4.15;;;2.00;;
38162;SDS011;23977;53.078;18.248;2023-06-22T12:32:24;4.68;;;2.15;;
38162;SDS011;23977;53.078;18.248;2023-06-22T12:34:51;4.00;;;2.30;;
38162;SDS011;23977;53.078;18.248;2023-06-22T12:37:16;5.60;;;2.20;;
38162;SDS011;23977;53.078;18.248;2023-06-22T12:39:42;5.90;;;2.20;;
38162;SDS011;23977;53.078;18.248;2023-06-22T12:42:07;4.70;;;2.00;;
38162;SDS011;23977;53.078;18.248;2023-06-22T12:44:34;4.32;;;2.00;;
38162;SDS011;23977;53.078;18.248;2023-06-22T12:47:00;4.15;;;2.20;;
38162;SDS011;23977;53.078;18.248;2023-06-22T12:49:26;3.47;;;1.85;;
38162;SDS011;23977;53.078;18.248;2023-06-22T12:51:52;3.60;;;1.90;;
38162;SDS011;23977;53.078;18.248;2023-06-22T12:54:18;3.75;;;2.28;;
38162;SDS011;23977;53.078;18.248;2023-06-22T12:56:43;4.55;;;2.00;;
38162;SDS011;23977;53.078;18.248;2023-06-22T12:59:10;3.95;;;2.13;;
38162;SDS011;23977;53.078;18.248;2023-06-22T13:01:36;4.18;;;2.10;;
38162;SDS011;23977;53.078;18.248;2023-06-22T13:04:02;4.05;;;2.15;;
38162;SDS011;23977;53.078;18.248;2023-06-22T13:06:28;5.93;;;2.17;;
38162;SDS011;23977;53.078;18.248;2023-06-22T13:08:54;3.38;;;2.30;;
38162;SDS011;23977;53.078;18.248;2023-06-22T13:11:20;6.47;;;1.98;;
38162;SDS011;23977;53.078;18.248;2023-06-22T13:13:46;3.53;;;2.10;;
38162;SDS011;23977;53.078;18.248;2023-06-22T13:16:12;5.00;;;1.98;;
38162;SDS011;23977;53.078;18.248;2023-06-22T13:18:38;3.60;;;2.17;;
38162;SDS011;23977;53.078;18.248;2023-06-22T13:21:03;4.05;;;2.00;;
38162;SDS011;23977;53.078;18.248;2023-06-22T13:23:30;3.20;;;2.03;;
38162;SDS011;23977;53.078;18.248;2023-06-22T13:25:56;4.95;;;2.25;;
38162;SDS011;23977;53.078;18.248;2023-06-22T13:28:22;4.15;;;2.20;;
38162;SDS011;23977;53.078;18.248;2023-06-22T13:30:48;4.38;;;2.10;;
38162;SDS011;23977;53.078;18.248;2023-06-22T13:33:14;4.40;;;2.05;;
38162;SDS011;23977;53.078;18.248;2023-06-22T13:35:40;4.50;;;2.30;;
38162;SDS011;23977;53.078;18.248;2023-06-22T13:38:08;5.70;;;2.28;;
38162;SDS011;23977;53.078;18.248;2023-06-22T13:40:35;4.45;;;2.10;;
38162;SDS011;23977;53.078;18.248;2023-06-22T13:43:01;4.28;;;2.10;;
38162;SDS011;23977;53.078;18.248;2023-06-22T13:45:27;4.40;;;2.00;;
38162;SDS011;23977;53.078;18.248;2023-06-22T13:47:53;6.25;;;2.30;;
38162;SDS011;23977;53.078;18.248;2023-06-22T13:50:18;3.33;;;2.20;;
38162;SDS011;23977;53.078;18.248;2023-06-22T13:52:44;5.38;;;2.30;;
38162;SDS011;23977;53.078;18.248;2023-06-22T13:55:10;3.97;;;2.10;;
38162;SDS011;23977;53.078;18.248;2023-06-22T13:57:35;3.53;;;2.13;;
38162;SDS011;23977;53.078;18.248;2023-06-22T14:00:03;4.18;;;2.20;;
38162;SDS011;23977;53.078;18.248;2023-06-22T14:02:33;3.90;;;2.10;;
38162;SDS011;23977;53.078;18.248;2023-06-22T14:04:59;3.60;;;2.10;;
38162;SDS011;23977;53.078;18.248;2023-06-22T14:07:25;3.75;;;2.00;;
38162;SDS011;23977;53.078;18.248;2023-06-22T14:09:51;4.13;;;2.08;;
38162;SDS011;23977;53.078;18.248;2023-06-22T14:12:17;4.80;;;2.10;;
38162;SDS011;23977;53.078;18.248;2023-06-22T14:14:43;4.53;;;2.13;;
38162;SDS011;23977;53.078;18.248;2023-06-22T14:17:09;6.18;;;2.30;;
38162;SDS011;23977;53.078;18.248;2023-06-22T14:19:35;3.13;;;1.90;;
38162;SDS011;23977;53.078;18.248;2023-06-22T14:22:01;3.80;;;2.10;;
38162;SDS011;23977;53.078;18.248;2023-06-22T14:24:27;4.05;;;2.00;;
38162;SDS011;23977;53.078;18.248;2023-06-22T14:26:54;3.72;;;2.08;;
38162;SDS011;23977;53.078;18.248;2023-06-22T14:29:20;4.72;;;1.95;;
38162;SDS011;23977;53.078;18.248;2023-06-22T14:31:46;3.22;;;1.92;;
38162;SDS011;23977;53.078;18.248;2023-06-22T14:34:12;2.80;;;1.92;;
38162;SDS011;23977;53.078;18.248;2023-06-22T14:36:39;3.90;;;2.10;;
38162;SDS011;23977;53.078;18.248;2023-06-22T14:39:04;4.88;;;2.17;;
38162;SDS011;23977;53.078;18.248;2023-06-22T14:41:30;4.07;;;2.28;;
38162;SDS011;23977;53.078;18.248;2023-06-22T14:43:56;4.13;;;2.08;;